DRZT weather

Tanout Airport
Tanout, Zinder Region, Niger

Public forecast

Using degrees Celsius for public forecast. Weather courtesy of forecast.io.

METAR (pilot weather report)

Closest report is Zinder Airport, 71.7 nm (132.8 km) S. Retrieved 2019/02/16 08:00 UTC (57 minutes ago):

DRZR 160800Z 08010KT 9999 0800 DU NSC 16/M03 Q1020

TAF (pilot weather forecast)

Closest forecast is Zinder Airport, 71.7 nm (132.8 km) S. Retrieved 2019/02/16 06:27 UTC (3 hours ago):

TAF DRZR 160500Z 1606/1706 06008KT 3000 DU NSC BECMG 1606/16008 1400 TEMPO 1608/1612 08020KT 0800 BLDU